createdAt,value
2023-04-29T00:00:44.073Z,4.07
2023-04-29T00:03:10.927Z,3.00
2023-04-29T00:05:37.888Z,2.78
2023-04-29T00:08:05.091Z,2.10
2023-04-29T00:10:31.727Z,3.97
2023-04-29T00:12:58.483Z,1.95
2023-04-29T00:15:25.146Z,4.30
2023-04-29T00:17:51.784Z,2.10
2023-04-29T00:20:18.827Z,2.38
2023-04-29T00:22:45.556Z,2.25
2023-04-29T00:25:12.383Z,3.00
2023-04-29T00:27:39.547Z,2.10
2023-04-29T00:30:08.332Z,3.20
2023-04-29T00:32:35.184Z,2.38
2023-04-29T00:35:02.389Z,3.22
2023-04-29T00:37:29.136Z,2.22
2023-04-29T00:39:55.764Z,2.75
2023-04-29T00:42:22.557Z,3.80
2023-04-29T00:44:49.191Z,2.88
2023-04-29T00:47:15.850Z,4.03
2023-04-29T00:49:42.511Z,2.58
2023-04-29T00:52:11.724Z,3.70
2023-04-29T00:54:39.190Z,2.75
2023-04-29T00:57:06.473Z,4.65
2023-04-29T00:59:34.573Z,3.13
2023-04-29T01:02:04.046Z,2.22
2023-04-29T01:04:31.747Z,4.65
2023-04-29T01:07:14.600Z,2.60
2023-04-29T01:09:41.755Z,3.50
2023-04-29T01:12:20.586Z,1.83
2023-04-29T01:15:11.071Z,3.95
2023-04-29T01:18:00.897Z,2.10
2023-04-29T01:20:29.054Z,2.85
2023-04-29T01:22:55.702Z,5.45
2023-04-29T01:25:22.839Z,3.63
2023-04-29T01:28:33.600Z,2.58
2023-04-29T01:31:11.473Z,2.35
2023-04-29T01:33:51.053Z,3.42
2023-04-29T01:36:44.544Z,3.00
2023-04-29T01:39:32.946Z,2.58
2023-04-29T01:42:34.762Z,4.13
2023-04-29T01:45:10.637Z,2.13
2023-04-29T01:47:39.265Z,2.43
2023-04-29T01:50:06.730Z,3.13
2023-04-29T01:52:33.593Z,2.55
2023-04-29T01:55:00.452Z,2.45
2023-04-29T01:57:36.440Z,3.10
2023-04-29T02:00:13.982Z,2.08
2023-04-29T02:02:42.224Z,2.78
2023-04-29T02:05:37.461Z,2.92
2023-04-29T02:08:05.764Z,3.70
2023-04-29T02:10:33.549Z,4.68
2023-04-29T02:13:20.224Z,5.07
2023-04-29T02:15:47.332Z,3.58
2023-04-29T02:18:14.727Z,3.03
2023-04-29T02:20:41.798Z,2.25
2023-04-29T02:23:08.654Z,2.97
2023-04-29T02:25:36.468Z,3.53
2023-04-29T02:28:03.304Z,2.97
2023-04-29T02:30:30.389Z,4.88
2023-04-29T02:32:57.372Z,5.07
2023-04-29T02:35:24.074Z,4.32
2023-04-29T02:37:50.721Z,3.08
2023-04-29T02:40:17.456Z,3.97
2023-04-29T02:42:44.493Z,3.58
2023-04-29T02:45:11.454Z,3.60
2023-04-29T02:47:38.292Z,2.80
2023-04-29T02:50:05.727Z,3.55
2023-04-29T02:52:32.805Z,3.65
2023-04-29T02:54:59.481Z,5.55
2023-04-29T02:57:26.176Z,4.22
2023-04-29T02:59:53.113Z,3.47
2023-04-29T03:02:19.987Z,2.75
2023-04-29T03:04:51.071Z,3.35
2023-04-29T03:07:18.142Z,5.10
2023-04-29T03:09:44.852Z,3.00
2023-04-29T03:12:13.154Z,4.93
2023-04-29T03:14:39.837Z,3.78
2023-04-29T03:17:06.680Z,2.97
2023-04-29T03:19:33.558Z,7.20
2023-04-29T03:22:00.346Z,3.40
2023-04-29T03:24:27.290Z,3.50
2023-04-29T03:26:53.995Z,5.03
2023-04-29T03:29:21.109Z,4.03
2023-04-29T03:31:47.875Z,4.35
2023-04-29T03:34:15.380Z,3.45
2023-04-29T03:36:48.277Z,4.32
2023-04-29T03:39:15.118Z,4.00
2023-04-29T03:41:42.772Z,3.72
2023-04-29T03:44:09.631Z,5.63
2023-04-29T03:46:36.465Z,4.07
2023-04-29T03:49:03.188Z,4.22
2023-04-29T03:51:30.242Z,4.32
2023-04-29T03:54:10.003Z,5.18
2023-04-29T03:56:37.159Z,4.07
2023-04-29T03:59:04.148Z,3.47
2023-04-29T04:01:31.194Z,3.85
2023-04-29T04:03:58.064Z,4.10
2023-04-29T04:06:25.012Z,3.67
2023-04-29T04:08:52.444Z,4.57
2023-04-29T04:11:25.985Z,4.00
2023-04-29T04:16:24.946Z,4.63
2023-04-29T04:18:52.192Z,5.25
2023-04-29T04:21:19.000Z,4.25
2023-04-29T04:23:53.469Z,4.93
2023-04-29T04:26:23.162Z,3.25
2023-04-29T04:29:05.522Z,3.35
2023-04-29T04:31:52.584Z,3.67
2023-04-29T04:34:20.441Z,3.28
2023-04-29T04:36:49.770Z,3.60
2023-04-29T04:39:16.462Z,3.17
2023-04-29T04:41:43.299Z,4.45
2023-04-29T04:44:10.574Z,5.32
2023-04-29T04:47:02.821Z,4.60
2023-04-29T04:49:50.187Z,2.97
2023-04-29T04:52:20.527Z,4.25
2023-04-29T04:54:50.249Z,3.67
2023-04-29T04:57:22.436Z,3.58
2023-04-29T04:59:49.438Z,5.20
2023-04-29T05:02:16.550Z,4.68
2023-04-29T05:04:43.258Z,4.47
2023-04-29T05:07:11.166Z,3.60
2023-04-29T05:10:08.638Z,3.50
2023-04-29T05:12:42.650Z,5.55
2023-04-29T05:15:09.792Z,4.55
2023-04-29T05:17:37.143Z,4.20
2023-04-29T05:20:04.553Z,5.55
2023-04-29T05:22:33.300Z,3.50
2023-04-29T05:25:03.268Z,6.57
2023-04-29T05:29:59.586Z,3.20
2023-04-29T05:32:26.378Z,5.47
2023-04-29T05:34:53.150Z,5.22
2023-04-29T05:37:20.401Z,4.60
2023-04-29T05:40:04.317Z,4.60
2023-04-29T05:42:32.096Z,4.75
2023-04-29T05:44:58.838Z,6.30
2023-04-29T05:47:25.606Z,4.28
2023-04-29T05:49:52.745Z,4.80
2023-04-29T05:52:19.608Z,4.47
2023-04-29T05:54:48.865Z,4.22
2023-04-29T05:57:15.670Z,3.70
2023-04-29T05:59:42.462Z,4.72
2023-04-29T06:02:11.017Z,9.63
2023-04-29T06:04:41.674Z,5.43
2023-04-29T06:07:14.853Z,4.47
2023-04-29T06:09:51.241Z,4.15
2023-04-29T06:12:18.201Z,4.10
2023-04-29T06:14:46.985Z,4.30
2023-04-29T06:17:13.811Z,3.85
2023-04-29T06:19:41.050Z,4.68
2023-04-29T06:22:09.427Z,4.93
2023-04-29T06:24:39.243Z,4.95
2023-04-29T06:27:07.425Z,3.85
2023-04-29T06:29:34.216Z,4.47
2023-04-29T06:32:02.664Z,4.47
2023-04-29T06:34:29.423Z,4.07
2023-04-29T06:37:25.288Z,5.50
2023-04-29T06:39:54.811Z,5.57
2023-04-29T06:42:40.702Z,4.50
2023-04-29T06:45:26.446Z,5.38
2023-04-29T06:48:01.728Z,4.97
2023-04-29T06:50:52.819Z,5.00
2023-04-29T06:53:20.116Z,7.03
2023-04-29T06:55:47.355Z,6.90
2023-04-29T06:58:18.576Z,6.90
2023-04-29T07:00:49.814Z,8.20
2023-04-29T07:03:18.181Z,7.23
2023-04-29T07:05:48.612Z,6.95
2023-04-29T07:08:15.318Z,7.93
2023-04-29T07:10:42.048Z,6.47
2023-04-29T07:13:08.953Z,7.40
2023-04-29T07:15:36.827Z,6.13
2023-04-29T07:18:05.474Z,5.95
2023-04-29T07:20:32.797Z,5.20
2023-04-29T07:22:59.633Z,5.82
2023-04-29T07:25:29.301Z,5.35
2023-04-29T07:27:56.719Z,7.47
2023-04-29T07:30:25.364Z,4.57
2023-04-29T07:32:52.276Z,6.30
2023-04-29T07:35:19.523Z,5.22
2023-04-29T07:37:46.461Z,5.57
2023-04-29T07:40:13.719Z,5.40
2023-04-29T07:42:40.712Z,4.43
2023-04-29T07:45:08.015Z,5.45
2023-04-29T07:47:34.733Z,4.88
2023-04-29T07:50:01.521Z,5.57
2023-04-29T07:52:29.392Z,8.95
2023-04-29T07:54:56.489Z,10.27
2023-04-29T07:57:23.455Z,4.00
2023-04-29T07:59:54.495Z,3.90
2023-04-29T08:02:21.831Z,5.15
2023-04-29T08:04:51.380Z,6.22
2023-04-29T08:07:18.618Z,6.10
2023-04-29T08:09:45.655Z,6.63
2023-04-29T08:12:12.664Z,5.32
2023-04-29T08:14:40.666Z,4.22
2023-04-29T08:17:08.372Z,5.72
2023-04-29T08:19:35.168Z,3.83
2023-04-29T08:22:04.196Z,4.50
2023-04-29T08:24:31.202Z,3.60
2023-04-29T08:26:59.286Z,3.95
2023-04-29T08:29:26.195Z,4.82
2023-04-29T08:31:53.152Z,3.70
2023-04-29T08:34:19.914Z,3.50
2023-04-29T08:36:46.572Z,5.57
2023-04-29T08:39:13.279Z,4.25
2023-04-29T08:41:40.028Z,3.60
2023-04-29T08:44:06.991Z,4.18
2023-04-29T08:46:33.984Z,2.78
2023-04-29T08:49:03.950Z,3.25
2023-04-29T08:51:32.375Z,3.75
2023-04-29T08:53:59.073Z,2.80
2023-04-29T08:56:28.159Z,2.20
2023-04-29T08:58:58.418Z,3.58
2023-04-29T09:01:29.253Z,3.40
2023-04-29T09:04:20.183Z,3.28
2023-04-29T09:06:48.475Z,3.45
2023-04-29T09:09:15.806Z,2.25
2023-04-29T09:11:42.491Z,2.42
2023-04-29T09:14:09.591Z,2.85
2023-04-29T09:16:38.364Z,1.42
2023-04-29T09:19:05.255Z,2.65
2023-04-29T09:21:35.531Z,3.55
2023-04-29T09:24:03.846Z,2.28
2023-04-29T09:26:43.016Z,2.33
2023-04-29T09:29:11.936Z,1.83
2023-04-29T09:31:42.221Z,2.13
2023-04-29T09:34:09.977Z,2.85
2023-04-29T09:36:51.241Z,1.75
2023-04-29T09:39:20.461Z,1.33
2023-04-29T09:41:53.206Z,8.70
2023-04-29T09:44:29.137Z,2.00
2023-04-29T09:46:57.698Z,2.00
2023-04-29T09:49:26.545Z,0.90
2023-04-29T09:52:00.924Z,1.35
2023-04-29T09:54:29.793Z,1.58
2023-04-29T09:56:58.833Z,2.92
2023-04-29T09:59:26.596Z,1.63
2023-04-29T10:01:55.840Z,2.15
2023-04-29T10:04:25.228Z,2.22
2023-04-29T10:06:53.981Z,3.45
2023-04-29T10:09:21.983Z,1.67
2023-04-29T10:11:51.481Z,2.35
2023-04-29T10:14:20.204Z,1.90
2023-04-29T10:16:48.334Z,7.20
2023-04-29T10:19:38.131Z,3.00
2023-04-29T10:22:12.411Z,1.60
2023-04-29T10:24:39.983Z,2.03
2023-04-29T10:27:08.381Z,2.00
2023-04-29T10:29:37.244Z,2.85
2023-04-29T10:32:07.720Z,2.75
2023-04-29T10:34:37.033Z,3.25
2023-04-29T10:37:03.745Z,2.17
2023-04-29T10:39:50.999Z,2.25
2023-04-29T10:42:28.167Z,2.22
2023-04-29T10:45:18.492Z,1.45
2023-04-29T10:48:06.777Z,4.10
2023-04-29T10:50:34.357Z,1.17
2023-04-29T10:53:05.506Z,1.58
2023-04-29T10:55:36.298Z,0.83
2023-04-29T10:58:04.635Z,0.90
2023-04-29T11:00:33.761Z,0.90
2023-04-29T11:03:02.277Z,1.45
2023-04-29T11:05:33.862Z,2.40
2023-04-29T11:08:24.237Z,1.80
2023-04-29T11:11:00.703Z,1.33
2023-04-29T11:13:29.617Z,1.92
2023-04-29T11:16:07.194Z,1.30
2023-04-29T11:18:35.508Z,1.30
2023-04-29T11:21:08.319Z,1.83
2023-04-29T11:23:41.235Z,2.25
2023-04-29T11:26:08.084Z,0.98
2023-04-29T11:28:35.027Z,1.77
2023-04-29T11:31:03.768Z,1.00
2023-04-29T11:33:32.975Z,1.58
2023-04-29T11:36:00.662Z,1.40
2023-04-29T11:38:31.519Z,1.92
2023-04-29T11:40:59.583Z,1.45
2023-04-29T11:43:26.626Z,2.65
2023-04-29T11:45:54.024Z,1.42
2023-04-29T11:48:22.164Z,1.50
2023-04-29T11:50:50.450Z,1.35
2023-04-29T11:53:20.623Z,1.70
2023-04-29T11:55:47.597Z,1.40
2023-04-29T11:58:18.124Z,1.55
2023-04-29T12:00:47.095Z,1.77
2023-04-29T12:03:15.220Z,1.50
2023-04-29T12:05:48.864Z,2.67
2023-04-29T12:08:15.734Z,2.88
2023-04-29T12:10:42.425Z,2.08
2023-04-29T12:13:10.409Z,2.00
2023-04-29T12:15:39.636Z,3.00
2023-04-29T12:18:07.428Z,1.67
2023-04-29T12:20:34.638Z,3.17
2023-04-29T12:23:20.431Z,2.13
2023-04-29T12:25:58.504Z,1.63
2023-04-29T12:28:26.193Z,0.90
2023-04-29T12:30:54.454Z,3.00
2023-04-29T12:33:26.863Z,3.05
2023-04-29T12:35:56.772Z,2.50
2023-04-29T12:38:31.251Z,0.95
2023-04-29T12:41:05.608Z,1.80
2023-04-29T12:43:36.513Z,3.22
2023-04-29T12:46:12.958Z,1.20
2023-04-29T12:48:41.783Z,1.33
2023-04-29T12:51:10.260Z,1.27
2023-04-29T12:53:37.032Z,2.03
2023-04-29T12:56:04.071Z,1.75
2023-04-29T12:58:31.243Z,1.25
2023-04-29T13:00:58.952Z,1.33
2023-04-29T13:03:26.905Z,2.85
2023-04-29T13:05:55.090Z,1.88
2023-04-29T13:08:22.894Z,1.33
2023-04-29T13:10:49.785Z,2.75
2023-04-29T13:13:16.435Z,1.17
2023-04-29T13:15:43.218Z,1.83
2023-04-29T13:18:09.955Z,1.08
2023-04-29T13:20:41.627Z,2.40
2023-04-29T13:23:09.296Z,0.98
2023-04-29T13:25:36.090Z,1.00
2023-04-29T13:28:03.277Z,1.38
2023-04-29T13:30:30.022Z,2.83
2023-04-29T13:33:03.974Z,18.05
2023-04-29T13:35:38.417Z,4.82
2023-04-29T13:38:05.380Z,1.52
2023-04-29T13:40:37.409Z,1.58
2023-04-29T13:45:38.952Z,1.52
2023-04-29T13:48:16.898Z,2.65
2023-04-29T13:53:38.654Z,1.95
2023-04-29T13:59:19.924Z,1.85
2023-04-29T14:02:23.197Z,2.65
2023-04-29T14:04:44.116Z,3.15
2023-04-29T14:07:10.917Z,2.67
2023-04-29T14:09:37.618Z,1.98
2023-04-29T14:12:04.417Z,1.77
2023-04-29T14:14:31.238Z,1.48
2023-04-29T14:16:58.153Z,2.50
2023-04-29T14:19:25.276Z,2.78
2023-04-29T14:21:52.146Z,1.83
2023-04-29T14:24:18.831Z,1.20
2023-04-29T14:26:45.495Z,1.42
2023-04-29T14:29:12.948Z,5.78
2023-04-29T14:31:39.709Z,2.50
2023-04-29T14:34:06.441Z,1.98
2023-04-29T14:36:33.205Z,11.93
2023-04-29T14:39:01.063Z,6.15
2023-04-29T14:41:28.134Z,4.43
2023-04-29T14:43:54.887Z,4.55
2023-04-29T14:46:22.460Z,4.10
2023-04-29T14:48:49.596Z,3.72
2023-04-29T14:51:16.526Z,1.70
2023-04-29T14:53:43.297Z,2.35
2023-04-29T14:56:10.034Z,2.28
2023-04-29T14:58:36.732Z,2.72
2023-04-29T15:01:03.443Z,2.47
2023-04-29T15:03:30.452Z,3.88
2023-04-29T15:05:58.134Z,1.50
2023-04-29T15:08:24.876Z,1.90
2023-04-29T15:10:51.926Z,3.42
2023-04-29T15:13:18.691Z,2.65
2023-04-29T15:15:45.582Z,2.78
2023-04-29T15:18:12.313Z,2.35
2023-04-29T15:20:39.108Z,2.63
2023-04-29T15:23:06.191Z,3.00
2023-04-29T15:25:34.694Z,3.55
2023-04-29T15:28:04.824Z,4.20
2023-04-29T15:30:32.355Z,2.67
2023-04-29T15:32:59.141Z,4.07
2023-04-29T15:35:26.087Z,3.95
2023-04-29T15:37:52.751Z,4.68
2023-04-29T15:40:20.247Z,3.95
2023-04-29T15:42:46.973Z,3.70
2023-04-29T15:45:13.998Z,4.43
2023-04-29T15:47:40.719Z,4.78
2023-04-29T15:50:09.604Z,4.35
2023-04-29T15:52:36.606Z,4.72
2023-04-29T15:55:03.959Z,5.72
2023-04-29T15:57:30.617Z,6.50
2023-04-29T15:59:57.397Z,6.55
2023-04-29T16:02:24.251Z,5.68
2023-04-29T16:04:50.999Z,5.38
2023-04-29T16:07:18.130Z,6.07
2023-04-29T16:09:44.808Z,4.72
2023-04-29T16:12:13.126Z,5.28
2023-04-29T16:14:39.841Z,6.10
2023-04-29T16:17:06.793Z,6.18
2023-04-29T16:19:35.990Z,6.05
2023-04-29T16:22:03.655Z,6.32
2023-04-29T16:24:30.405Z,5.38
2023-04-29T16:26:57.325Z,4.90
2023-04-29T16:29:24.026Z,6.72
2023-04-29T16:31:51.061Z,4.50
2023-04-29T16:34:17.773Z,5.18
2023-04-29T16:36:44.407Z,5.45
2023-04-29T16:39:11.101Z,6.93
2023-04-29T16:41:37.877Z,5.70
2023-04-29T16:44:04.814Z,5.40
2023-04-29T16:46:32.647Z,6.43
2023-04-29T16:48:59.606Z,5.30
2023-04-29T16:51:26.671Z,4.75
2023-04-29T16:53:53.666Z,5.72
2023-04-29T16:56:21.761Z,5.53
2023-04-29T16:58:48.877Z,5.80
2023-04-29T17:01:16.411Z,6.82
2023-04-29T17:03:43.216Z,5.63
2023-04-29T17:06:10.041Z,6.15
2023-04-29T17:08:36.881Z,6.00
2023-04-29T17:11:05.044Z,6.95
2023-04-29T17:13:32.049Z,7.93
2023-04-29T17:15:58.796Z,6.55
2023-04-29T17:18:25.983Z,7.25
2023-04-29T17:20:52.787Z,5.90
2023-04-29T17:23:19.463Z,6.35
2023-04-29T17:25:46.805Z,7.22
2023-04-29T17:28:13.537Z,8.07
2023-04-29T17:30:40.302Z,7.43
2023-04-29T17:33:07.137Z,7.85
2023-04-29T17:35:34.157Z,7.63
2023-04-29T17:38:01.281Z,6.05
2023-04-29T17:40:28.063Z,6.30
2023-04-29T17:42:54.748Z,7.22
2023-04-29T17:45:21.410Z,5.22
2023-04-29T17:47:48.477Z,7.72
2023-04-29T17:50:15.532Z,5.78
2023-04-29T17:52:42.846Z,5.88
2023-04-29T17:55:10.562Z,7.85
2023-04-29T17:57:38.327Z,5.70
2023-04-29T18:00:08.597Z,6.13
2023-04-29T18:02:35.453Z,5.05
2023-04-29T18:05:03.638Z,5.85
2023-04-29T18:07:30.540Z,7.45
2023-04-29T18:09:57.676Z,7.88
2023-04-29T18:12:24.932Z,6.35
2023-04-29T18:14:52.323Z,8.25
2023-04-29T18:17:19.476Z,6.38
2023-04-29T18:19:48.666Z,6.00
2023-04-29T18:22:15.961Z,8.30
2023-04-29T18:24:42.704Z,6.60
2023-04-29T18:27:09.350Z,6.78
2023-04-29T18:29:36.098Z,5.10
2023-04-29T18:32:03.861Z,6.18
2023-04-29T18:34:31.226Z,7.60
2023-04-29T18:36:58.009Z,5.85
2023-04-29T18:39:24.810Z,6.18
2023-04-29T18:41:52.049Z,7.80
2023-04-29T18:44:18.940Z,6.80
2023-04-29T18:46:45.653Z,6.68
2023-04-29T18:49:16.181Z,7.82
2023-04-29T18:51:46.867Z,7.22
2023-04-29T18:54:18.692Z,6.53
2023-04-29T18:56:47.117Z,7.40
2023-04-29T18:59:19.173Z,5.57
2023-04-29T19:01:47.317Z,5.85
2023-04-29T19:04:14.403Z,5.88
2023-04-29T19:06:41.986Z,5.50
2023-04-29T19:09:09.110Z,7.05
2023-04-29T19:11:36.284Z,5.75
2023-04-29T19:14:04.328Z,5.57
2023-04-29T19:16:31.005Z,5.82
2023-04-29T19:18:57.872Z,5.53
2023-04-29T19:21:24.590Z,5.70
2023-04-29T19:23:51.313Z,6.90
2023-04-29T19:26:18.001Z,6.40
2023-04-29T19:28:44.637Z,5.55
2023-04-29T19:31:12.288Z,5.50
2023-04-29T19:33:40.830Z,6.35
2023-04-29T19:36:07.954Z,5.72
2023-04-29T19:38:40.013Z,7.07
2023-04-29T19:41:07.021Z,7.20
2023-04-29T19:43:34.734Z,6.28
2023-04-29T19:46:02.100Z,5.10
2023-04-29T19:48:29.269Z,5.82
2023-04-29T19:50:59.495Z,6.35
2023-04-29T19:53:27.131Z,5.80
2023-04-29T19:55:54.290Z,8.55
2023-04-29T19:58:21.279Z,6.00
2023-04-29T20:00:48.246Z,6.03
2023-04-29T20:03:15.024Z,6.22
2023-04-29T20:05:41.903Z,6.82
2023-04-29T20:08:08.678Z,6.22
2023-04-29T20:10:35.424Z,6.35
2023-04-29T20:13:02.177Z,6.45
2023-04-29T20:15:29.007Z,6.47
2023-04-29T20:17:56.090Z,5.05
2023-04-29T20:20:24.326Z,5.47
2023-04-29T20:22:52.230Z,5.68
2023-04-29T20:25:19.067Z,5.20
2023-04-29T20:27:45.830Z,4.85
2023-04-29T20:30:12.797Z,5.75
2023-04-29T20:32:39.613Z,5.25
2023-04-29T20:35:06.688Z,5.53
2023-04-29T20:37:33.370Z,5.45
2023-04-29T20:40:00.251Z,6.72
2023-04-29T20:42:27.146Z,5.30
2023-04-29T20:44:53.914Z,5.25
2023-04-29T20:47:21.325Z,5.45
2023-04-29T20:49:48.039Z,5.88
2023-04-29T20:52:14.696Z,5.35
2023-04-29T20:54:41.569Z,4.80
2023-04-29T20:57:08.223Z,4.85
2023-04-29T20:59:34.926Z,8.25
2023-04-29T21:02:01.658Z,4.55
2023-04-29T21:04:28.578Z,6.47
2023-04-29T21:06:55.438Z,4.90
2023-04-29T21:09:22.394Z,5.57
2023-04-29T21:11:49.055Z,5.82
2023-04-29T21:14:15.804Z,7.22
2023-04-29T21:16:42.868Z,6.05
2023-04-29T21:19:09.566Z,5.65
2023-04-29T21:21:36.250Z,5.88
2023-04-29T21:24:03.096Z,3.95
2023-04-29T21:26:29.762Z,5.25
2023-04-29T21:28:56.453Z,8.63
2023-04-29T21:31:23.215Z,6.20
2023-04-29T21:33:50.075Z,6.53
2023-04-29T21:36:16.841Z,6.78
2023-04-29T21:38:43.617Z,5.65
2023-04-29T21:41:31.197Z,5.65
2023-04-29T21:44:00.169Z,4.32
2023-04-29T21:46:33.315Z,4.63
2023-04-29T21:49:01.110Z,7.65
2023-04-29T21:51:28.716Z,4.78
2023-04-29T21:53:55.497Z,4.97
2023-04-29T21:56:24.623Z,6.55
2023-04-29T21:58:52.630Z,4.72
2023-04-29T22:01:37.868Z,5.38
2023-04-29T22:04:04.562Z,4.50
2023-04-29T22:06:31.595Z,4.55
2023-04-29T22:08:58.323Z,5.32
2023-04-29T22:11:25.558Z,5.38
2023-04-29T22:13:52.309Z,4.63
2023-04-29T22:16:19.299Z,5.15
2023-04-29T22:18:46.411Z,4.20
2023-04-29T22:21:13.143Z,6.93
2023-04-29T22:23:39.857Z,6.15
2023-04-29T22:26:06.620Z,4.90
2023-04-29T22:28:33.339Z,5.18
2023-04-29T22:31:00.053Z,6.18
2023-04-29T22:33:26.797Z,5.22
2023-04-29T22:35:53.433Z,5.93
2023-04-29T22:38:20.066Z,4.97
2023-04-29T22:40:51.195Z,7.32
2023-04-29T22:43:18.370Z,5.03
2023-04-29T22:45:52.619Z,4.53
2023-04-29T22:48:19.865Z,4.75
2023-04-29T22:50:53.699Z,5.20
2023-04-29T22:53:21.496Z,4.82
2023-04-29T22:55:59.005Z,6.82
2023-04-29T22:58:26.694Z,6.25
2023-04-29T23:00:56.655Z,5.65
2023-04-29T23:03:24.290Z,5.35
2023-04-29T23:05:51.259Z,6.15
2023-04-29T23:08:17.964Z,5.15
2023-04-29T23:10:51.058Z,5.15
2023-04-29T23:13:18.139Z,5.15
2023-04-29T23:15:45.813Z,5.80
2023-04-29T23:18:12.585Z,5.82
2023-04-29T23:20:39.476Z,6.63
2023-04-29T23:23:06.311Z,7.45
2023-04-29T23:25:32.956Z,6.15
2023-04-29T23:27:59.648Z,6.35
2023-04-29T23:30:26.454Z,5.88
2023-04-29T23:32:53.308Z,7.00
2023-04-29T23:35:20.041Z,6.57
2023-04-29T23:37:46.699Z,7.28
2023-04-29T23:40:13.505Z,6.00
2023-04-29T23:42:40.307Z,7.53
2023-04-29T23:45:08.324Z,8.07
2023-04-29T23:47:35.031Z,6.50
2023-04-29T23:50:01.769Z,7.53
2023-04-29T23:52:28.441Z,8.32
2023-04-29T23:54:55.167Z,6.05
2023-04-29T23:57:22.014Z,5.97
2023-04-29T23:59:49.021Z,9.02
